Time;durP1;ratioP1;P1;durP2;ratioP2;P2;SDS_P1;SDS_P2;PMS_P1;PMS_P2;Temp;Humidity;BMP_temperature;BMP_pressure;BME280_temperature;BME280_humidity;BME280_pressure;Samples;Min_cycle;Max_cycle;Signal;HPM_P1;HPM_P2
2023/10/31 00:01:56;;;;;;;4.65;2.35;;;11.90;74.70;;;;;;5062448;28;20173;-76
2023/10/31 00:04:22;;;;;;;6.05;2.95;;;12.00;75.00;;;;;;5057279;28;20036;-76
2023/10/31 00:06:48;;;;;;;5.00;2.55;;;11.90;74.80;;;;;;5061363;28;20032;-76
2023/10/31 00:09:14;;;;;;;5.28;2.17;;;11.90;74.80;;;;;;5063659;28;20037;-76
2023/10/31 00:11:44;;;;;;;4.18;2.03;;;11.90;74.80;;;;;;5059826;28;20081;-76
2023/10/31 00:14:10;;;;;;;6.72;3.58;;;11.90;74.90;;;;;;5061024;28;20028;-76
2023/10/31 00:16:36;;;;;;;5.15;2.63;;;12.00;75.00;;;;;;5056615;28;20036;-77
2023/10/31 00:19:02;;;;;;;3.10;1.73;;;11.90;74.90;;;;;;5059574;28;20123;-76
2023/10/31 00:21:28;;;;;;;6.43;1.90;;;12.00;75.10;;;;;;5059396;28;20771;-76
2023/10/31 00:23:54;;;;;;;4.53;1.40;;;12.00;75.10;;;;;;5058874;28;20404;-77
2023/10/31 00:26:20;;;;;;;5.13;1.83;;;12.00;75.10;;;;;;5059526;28;20027;-77
2023/10/31 00:28:52;;;;;;;4.30;1.70;;;12.00;75.10;;;;;;5056585;28;20033;-78
2023/10/31 00:31:18;;;;;;;6.80;2.17;;;12.00;75.20;;;;;;5058753;28;20040;-78
2023/10/31 00:33:44;;;;;;;4.88;1.63;;;12.00;75.20;;;;;;5059928;28;20032;-76
2023/10/31 00:36:10;;;;;;;4.03;1.58;;;12.00;75.20;;;;;;5053722;28;20039;-76
2023/10/31 00:38:36;;;;;;;5.13;1.77;;;12.00;75.20;;;;;;5057358;28;20032;-76
2023/10/31 00:41:03;;;;;;;4.38;1.42;;;12.00;75.30;;;;;;5055703;28;20039;-76
2023/10/31 00:43:29;;;;;;;5.10;1.45;;;12.00;75.30;;;;;;5055436;28;20115;-76
2023/10/31 00:45:55;;;;;;;5.95;1.50;;;12.00;75.30;;;;;;5058940;28;20032;-77
2023/10/31 00:48:21;;;;;;;4.55;1.30;;;12.00;75.40;;;;;;5041274;28;20545;-76
2023/10/31 00:50:47;;;;;;;4.80;1.58;;;12.10;75.60;;;;;;5057683;28;20040;-76
2023/10/31 00:53:14;;;;;;;4.50;2.17;;;12.10;75.60;;;;;;5046456;28;20025;-77
2023/10/31 00:55:40;;;;;;;2.95;1.10;;;12.10;75.70;;;;;;5091712;28;20044;-77
2023/10/31 00:58:07;;;;;;;3.03;1.42;;;12.10;75.60;;;;;;5057765;28;20032;-76
2023/10/31 01:00:34;;;;;;;4.78;1.50;;;12.10;75.60;;;;;;5069151;28;20098;-77
2023/10/31 01:03:00;;;;;;;5.13;1.92;;;12.10;75.60;;;;;;5065134;28;20549;-77
2023/10/31 01:05:28;;;;;;;3.10;1.38;;;12.10;75.70;;;;;;5066009;28;20051;-76
2023/10/31 01:07:54;;;;;;;3.92;1.10;;;12.10;75.60;;;;;;5061306;28;20040;-76
2023/10/31 01:10:21;;;;;;;3.60;1.98;;;12.10;75.70;;;;;;5068800;28;20024;-76
2023/10/31 01:12:47;;;;;;;5.60;1.25;;;12.10;75.80;;;;;;5059179;28;20102;-76
2023/10/31 01:15:16;;;;;;;5.63;1.42;;;12.20;76.00;;;;;;5058709;28;20471;-76
2023/10/31 01:17:42;;;;;;;4.53;0.90;;;12.20;76.00;;;;;;5055936;28;20039;-76
2023/10/31 01:20:10;;;;;;;2.80;1.23;;;12.20;76.10;;;;;;5060161;28;20139;-76
2023/10/31 01:22:36;;;;;;;2.42;1.20;;;12.20;76.10;;;;;;5059445;28;20032;-76
2023/10/31 01:25:02;;;;;;;4.57;1.10;;;12.20;76.20;;;;;;5072418;28;20041;-76
2023/10/31 01:27:29;;;;;;;3.85;1.35;;;12.20;76.20;;;;;;5056733;28;20461;-75
2023/10/31 01:29:55;;;;;;;3.78;1.38;;;12.20;76.20;;;;;;5056626;28;20085;-78
2023/10/31 01:32:21;;;;;;;3.72;1.08;;;12.20;76.20;;;;;;5058318;28;20193;-76
2023/10/31 01:34:48;;;;;;;5.93;1.42;;;12.20;76.30;;;;;;5057989;28;20056;-76
2023/10/31 01:37:14;;;;;;;7.45;1.95;;;12.30;76.50;;;;;;5057914;28;20122;-77
2023/10/31 01:39:41;;;;;;;5.88;1.27;;;12.30;76.50;;;;;;5052668;28;20213;-76
2023/10/31 01:42:07;;;;;;;3.58;0.95;;;12.30;76.60;;;;;;5053629;28;20561;-76
2023/10/31 01:44:33;;;;;;;6.85;1.27;;;12.30;76.60;;;;;;5064669;28;20159;-76
2023/10/31 01:46:59;;;;;;;4.28;1.15;;;12.30;76.60;;;;;;5057523;28;20123;-76
2023/10/31 01:49:25;;;;;;;6.03;1.50;;;12.30;76.70;;;;;;5056866;28;20037;-76
2023/10/31 01:51:51;;;;;;;7.60;1.27;;;12.30;76.70;;;;;;5063093;28;20082;-76
2023/10/31 01:54:18;;;;;;;1.92;0.80;;;12.30;76.70;;;;;;5067243;28;20115;-76
2023/10/31 01:56:44;;;;;;;4.20;1.25;;;12.30;76.70;;;;;;5059682;28;20033;-76
2023/10/31 01:59:10;;;;;;;4.88;1.10;;;12.40;76.90;;;;;;5061341;28;20055;-76
2023/10/31 02:01:41;;;;;;;5.00;1.10;;;12.30;76.80;;;;;;5061333;28;20021;-76
2023/10/31 02:04:07;;;;;;;4.22;1.42;;;12.40;77.00;;;;;;5064443;28;20028;-76
2023/10/31 02:06:33;;;;;;;7.53;1.13;;;12.40;77.00;;;;;;5060448;28;20039;-77
2023/10/31 02:08:59;;;;;;;5.68;1.30;;;12.30;76.80;;;;;;5068390;28;20111;-77
2023/10/31 02:11:25;;;;;;;2.55;1.00;;;12.40;77.10;;;;;;5059159;28;20403;-76
2023/10/31 02:13:51;;;;;;;4.03;1.10;;;12.40;77.10;;;;;;5040733;28;20025;-77
2023/10/31 02:16:17;;;;;;;2.03;0.82;;;12.40;77.10;;;;;;5066487;28;20048;-76
2023/10/31 02:18:43;;;;;;;3.15;0.85;;;12.40;77.20;;;;;;5063287;28;20529;-77
2023/10/31 02:21:09;;;;;;;5.32;1.77;;;12.40;77.20;;;;;;5060272;28;20291;-77
2023/10/31 02:23:35;;;;;;;7.15;1.23;;;12.40;77.20;;;;;;5063288;28;20051;-76
2023/10/31 02:26:03;;;;;;;4.20;1.92;;;12.40;77.20;;;;;;5063478;28;20040;-77
2023/10/31 02:28:30;;;;;;;4.25;1.58;;;12.40;77.20;;;;;;5061454;28;20048;-77
2023/10/31 02:30:56;;;;;;;3.35;0.90;;;12.40;77.30;;;;;;5062030;28;20032;-77
2023/10/31 02:33:22;;;;;;;3.30;1.05;;;12.40;77.20;;;;;;5044192;28;20484;-77
2023/10/31 02:35:47;;;;;;;6.35;1.75;;;12.40;77.30;;;;;;5043992;28;20039;-76
2023/10/31 02:38:13;;;;;;;5.15;1.17;;;12.40;77.20;;;;;;5062040;28;20028;-76
2023/10/31 02:40:39;;;;;;;2.80;1.00;;;12.30;77.10;;;;;;5060906;28;20060;-78
2023/10/31 02:43:05;;;;;;;4.88;1.10;;;12.30;77.10;;;;;;5064219;28;20030;-76
2023/10/31 02:45:32;;;;;;;6.03;1.75;;;12.30;77.10;;;;;;5061243;28;20036;-78
2023/10/31 02:48:00;;;;;;;4.93;1.20;;;12.30;77.20;;;;;;5096662;28;20584;-78
2023/10/31 02:50:26;;;;;;;5.40;1.20;;;12.40;77.30;;;;;;5062602;28;20149;-78
2023/10/31 02:52:53;;;;;;;5.38;1.20;;;12.30;77.20;;;;;;5057787;28;20707;-75
2023/10/31 02:55:18;;;;;;;3.08;1.15;;;12.30;77.20;;;;;;5062428;28;20043;-75
2023/10/31 02:57:44;;;;;;;4.70;1.00;;;12.40;77.40;;;;;;5058129;28;20364;-76
2023/10/31 03:00:11;;;;;;;6.35;1.20;;;12.30;77.30;;;;;;5088862;28;20676;-75
2023/10/31 03:02:37;;;;;;;3.85;1.35;;;12.30;77.30;;;;;;5063115;28;20059;-75
2023/10/31 03:05:03;;;;;;;4.38;1.13;;;12.30;77.30;;;;;;5045326;28;20032;-76
2023/10/31 03:07:30;;;;;;;5.38;2.15;;;12.30;77.40;;;;;;5046683;28;20037;-75
2023/10/31 03:09:55;;;;;;;4.95;1.60;;;12.30;77.40;;;;;;5061040;28;20360;-76
2023/10/31 03:12:21;;;;;;;3.45;1.10;;;12.30;77.40;;;;;;5063521;28;20036;-75
2023/10/31 03:14:47;;;;;;;4.13;1.50;;;12.30;77.40;;;;;;5065757;28;20341;-75
2023/10/31 03:17:13;;;;;;;5.05;1.10;;;12.30;77.50;;;;;;5053507;28;20310;-75
2023/10/31 03:19:39;;;;;;;4.30;1.10;;;12.30;77.50;;;;;;5062570;28;20574;-74
2023/10/31 03:22:06;;;;;;;3.25;1.38;;;12.30;77.50;;;;;;5060929;28;20558;-75
2023/10/31 03:24:32;;;;;;;4.25;1.15;;;12.30;77.50;;;;;;5062375;28;20042;-74
2023/10/31 03:26:59;;;;;;;4.35;1.23;;;12.30;77.50;;;;;;5040693;28;20033;-75
2023/10/31 03:29:25;;;;;;;6.72;1.40;;;12.30;77.50;;;;;;5058010;28;20032;-76
2023/10/31 03:31:50;;;;;;;2.85;0.93;;;12.20;77.30;;;;;;5062069;28;20068;-77
2023/10/31 03:34:16;;;;;;;3.10;1.17;;;12.30;77.50;;;;;;5062944;28;20726;-75
2023/10/31 03:36:42;;;;;;;4.10;0.93;;;12.20;77.30;;;;;;5043866;28;20033;-76
2023/10/31 03:39:08;;;;;;;5.70;1.13;;;12.20;77.30;;;;;;5063421;28;20036;-76
2023/10/31 03:41:35;;;;;;;5.28;1.10;;;12.20;77.30;;;;;;5058727;28;20040;-76
2023/10/31 03:44:01;;;;;;;3.40;1.00;;;12.20;77.20;;;;;;5059101;28;20448;-76
2023/10/31 03:46:27;;;;;;;2.13;1.02;;;12.20;77.20;;;;;;5045746;28;20033;-78
2023/10/31 03:48:53;;;;;;;3.72;0.95;;;12.10;77.00;;;;;;5059953;28;20566;-77
2023/10/31 03:51:19;;;;;;;2.42;0.88;;;12.10;77.00;;;;;;5092509;27;20512;-76
2023/10/31 03:53:45;;;;;;;3.72;1.05;;;12.00;76.80;;;;;;5061409;28;20047;-75
2023/10/31 03:56:11;;;;;;;3.80;1.20;;;12.10;77.10;;;;;;5060129;28;20392;-76
2023/10/31 03:58:37;;;;;;;4.20;1.00;;;12.00;76.80;;;;;;5059964;28;20032;-75
2023/10/31 04:01:03;;;;;;;4.55;2.00;;;12.00;76.80;;;;;;5061131;28;20025;-75
2023/10/31 04:03:29;;;;;;;4.78;1.10;;;12.00;76.80;;;;;;5048325;28;20032;-76
2023/10/31 04:05:55;;;;;;;3.80;1.20;;;11.90;76.60;;;;;;5062571;28;20040;-76
2023/10/31 04:08:21;;;;;;;7.43;1.25;;;11.90;76.60;;;;;;5058752;28;20538;-76
2023/10/31 04:10:47;;;;;;;2.88;0.90;;;11.90;76.60;;;;;;5059957;28;20509;-75
2023/10/31 04:13:13;;;;;;;4.15;1.30;;;11.80;76.40;;;;;;5061318;28;20041;-76
2023/10/31 04:15:39;;;;;;;4.18;1.90;;;11.80;76.40;;;;;;5066450;28;20051;-77
2023/10/31 04:18:05;;;;;;;3.22;0.80;;;11.80;76.40;;;;;;5062529;28;20063;-77
2023/10/31 04:20:31;;;;;;;6.47;1.80;;;11.80;76.50;;;;;;5055754;28;20060;-76
2023/10/31 04:22:57;;;;;;;4.78;1.30;;;11.70;76.30;;;;;;5060521;28;20040;-77
2023/10/31 04:25:23;;;;;;;4.35;1.08;;;11.70;76.30;;;;;;5036078;28;20040;-77
2023/10/31 04:27:50;;;;;;;2.65;1.27;;;11.70;76.40;;;;;;5058377;28;20029;-76
2023/10/31 04:30:15;;;;;;;3.75;1.20;;;11.70;76.30;;;;;;5059277;28;20118;-76
2023/10/31 04:32:41;;;;;;;2.53;1.10;;;11.60;76.20;;;;;;5060242;28;20029;-76
2023/10/31 04:35:07;;;;;;;4.00;1.23;;;11.60;76.60;;;;;;5052361;28;20071;-75
2023/10/31 04:37:34;;;;;;;4.10;1.00;;;11.60;76.10;;;;;;5061722;28;20078;-76
2023/10/31 04:39:59;;;;;;;3.58;1.08;;;11.50;75.90;;;;;;5052796;28;20044;-76
2023/10/31 04:42:26;;;;;;;4.90;1.75;;;11.50;76.00;;;;;;5056993;28;20035;-76
2023/10/31 04:44:52;;;;;;;2.90;1.58;;;11.50;76.00;;;;;;5047089;28;20032;-76
2023/10/31 04:47:18;;;;;;;3.30;1.08;;;11.50;76.00;;;;;;5059711;28;20060;-76
2023/10/31 04:49:44;;;;;;;6.05;1.10;;;11.50;76.10;;;;;;5056953;28;20053;-77
2023/10/31 04:52:10;;;;;;;4.25;1.20;;;11.50;76.00;;;;;;5059742;28;20033;-77
2023/10/31 04:54:36;;;;;;;2.65;1.38;;;11.40;75.80;;;;;;5061845;28;20572;-77
2023/10/31 04:57:03;;;;;;;2.15;0.80;;;11.40;75.90;;;;;;5060625;28;20484;-77
2023/10/31 04:59:29;;;;;;;3.70;0.90;;;11.40;75.90;;;;;;5055592;28;20043;-76
2023/10/31 05:01:55;;;;;;;2.28;0.80;;;11.30;76.20;;;;;;5060240;28;20017;-77
2023/10/31 05:04:22;;;;;;;5.97;1.10;;;11.30;75.80;;;;;;5059167;28;20258;-77
2023/10/31 05:06:47;;;;;;;1.67;0.85;;;11.30;75.80;;;;;;5064542;28;20672;-77
2023/10/31 05:09:14;;;;;;;2.70;0.77;;;11.30;75.70;;;;;;5060064;28;20072;-78
2023/10/31 05:11:40;;;;;;;2.85;0.80;;;11.20;75.60;;;;;;5060008;28;20024;-77
2023/10/31 05:14:10;;;;;;;2.78;1.00;;;11.20;75.60;;;;;;5059704;28;20051;-77
2023/10/31 05:16:43;;;;;;;3.88;1.10;;;11.20;75.60;;;;;;5063839;28;20431;-76
2023/10/31 05:19:09;;;;;;;1.50;0.63;;;11.20;75.60;;;;;;5056855;28;20608;-77
2023/10/31 05:21:36;;;;;;;2.83;1.27;;;11.10;75.30;;;;;;5061172;28;20368;-76
2023/10/31 05:24:02;;;;;;;3.58;1.00;;;11.10;75.40;;;;;;5059365;28;20020;-76
2023/10/31 05:26:29;;;;;;;2.40;1.23;;;11.10;75.30;;;;;;5058102;28;20111;-78
2023/10/31 05:28:57;;;;;;;3.25;1.10;;;11.10;75.30;;;;;;5054577;28;20024;-77
2023/10/31 05:31:24;;;;;;;4.38;1.33;;;11.10;75.30;;;;;;5081281;28;20543;-77
2023/10/31 05:33:52;;;;;;;2.72;0.98;;;11.00;75.20;;;;;;5056554;28;20056;-75
2023/10/31 05:36:22;;;;;;;3.50;1.05;;;11.00;75.20;;;;;;5053803;28;20111;-76
2023/10/31 05:38:48;;;;;;;2.05;0.90;;;11.00;75.20;;;;;;5057256;28;20045;-78
2023/10/31 05:41:15;;;;;;;2.33;1.20;;;10.90;75.00;;;;;;5055595;28;20740;-76
2023/10/31 05:43:41;;;;;;;5.32;1.23;;;10.90;75.00;;;;;;5060527;28;20101;-77
2023/10/31 05:46:12;;;;;;;3.75;1.40;;;10.90;75.10;;;;;;5058554;28;20579;-77
2023/10/31 05:48:40;;;;;;;1.75;0.80;;;10.90;75.10;;;;;;5058035;28;20029;-76
2023/10/31 05:51:17;;;;;;;3.17;1.35;;;10.90;75.10;;;;;;5056476;28;20202;-76
2023/10/31 05:53:45;;;;;;;3.15;1.23;;;10.90;75.10;;;;;;5059150;28;20221;-76
2023/10/31 05:56:12;;;;;;;1.30;1.17;;;10.90;75.10;;;;;;5058516;28;20125;-77
2023/10/31 05:58:38;;;;;;;2.58;1.10;;;10.80;75.00;;;;;;5057247;28;20090;-76
2023/10/31 06:01:05;;;;;;;3.55;1.17;;;10.80;75.00;;;;;;5058554;28;20203;-76
2023/10/31 06:03:31;;;;;;;2.97;1.17;;;10.80;75.00;;;;;;5058393;28;20036;-76
2023/10/31 06:05:57;;;;;;;2.78;1.23;;;10.80;75.00;;;;;;5055849;28;20447;-76
2023/10/31 06:08:24;;;;;;;2.47;1.08;;;10.80;75.10;;;;;;5059161;28;20515;-77
2023/10/31 06:10:50;;;;;;;4.18;1.20;;;10.80;75.10;;;;;;5055905;28;20037;-76
2023/10/31 06:13:17;;;;;;;2.20;1.15;;;10.80;75.10;;;;;;5071312;28;20025;-75
2023/10/31 06:15:43;;;;;;;2.50;0.90;;;10.80;75.10;;;;;;5054539;28;20032;-78
2023/10/31 06:18:08;;;;;;;3.00;1.20;;;10.80;75.20;;;;;;5057551;28;20544;-74
2023/10/31 06:20:35;;;;;;;2.20;0.93;;;10.80;75.10;;;;;;5053509;28;20041;-76
2023/10/31 06:23:05;;;;;;;1.58;1.08;;;10.80;75.20;;;;;;5057812;28;20097;-78
2023/10/31 06:25:31;;;;;;;3.05;1.27;;;10.80;75.20;;;;;;5056254;28;20033;-78
2023/10/31 06:27:57;;;;;;;2.97;1.20;;;10.80;75.20;;;;;;5056645;28;20124;-76
2023/10/31 06:30:24;;;;;;;4.63;1.40;;;10.80;75.30;;;;;;5049269;28;20048;-77
2023/10/31 06:32:53;;;;;;;2.15;1.17;;;10.70;75.10;;;;;;5055778;28;20040;-77
2023/10/31 06:35:19;;;;;;;2.85;1.13;;;10.80;75.30;;;;;;5057853;28;20066;-76
2023/10/31 06:37:45;;;;;;;2.47;1.17;;;10.80;75.30;;;;;;5055704;28;20044;-79
2023/10/31 06:40:11;;;;;;;3.22;1.40;;;10.80;75.30;;;;;;5055572;28;20052;-79
2023/10/31 06:42:37;;;;;;;1.77;1.20;;;10.80;75.40;;;;;;5086745;28;20032;-78
2023/10/31 06:45:04;;;;;;;4.97;1.42;;;10.70;75.20;;;;;;5059288;28;20151;-78
2023/10/31 06:47:30;;;;;;;4.53;1.27;;;10.80;75.70;;;;;;5058751;28;21505;-78
2023/10/31 06:49:56;;;;;;;2.63;1.50;;;10.80;75.90;;;;;;5058524;28;20071;-78
2023/10/31 06:52:22;;;;;;;2.28;1.33;;;10.90;76.20;;;;;;5069846;28;20115;-76
2023/10/31 06:54:48;;;;;;;1.85;1.48;;;10.90;76.40;;;;;;5058775;28;20043;-79
2023/10/31 06:57:15;;;;;;;3.47;1.25;;;11.00;76.70;;;;;;5090016;27;20040;-80
2023/10/31 06:59:41;;;;;;;4.82;1.60;;;11.00;76.80;;;;;;5056704;28;20036;-80
2023/10/31 07:02:08;;;;;;;5.85;1.98;;;11.10;77.10;;;;;;5067050;28;20043;-79
2023/10/31 07:04:34;;;;;;;3.10;1.98;;;11.10;77.30;;;;;;5059465;28;20028;-79
2023/10/31 07:07:00;;;;;;;4.38;2.00;;;11.20;77.60;;;;;;5061979;28;20032;-80
2023/10/31 07:09:27;;;;;;;8.35;2.75;;;11.30;77.90;;;;;;5054472;28;20176;-88
2023/10/31 07:11:53;;;;;;;4.00;1.98;;;11.30;78.10;;;;;;5067391;28;20421;-89
2023/10/31 07:14:19;;;;;;;5.13;2.17;;;11.40;78.30;;;;;;5062269;28;20504;-90
2023/10/31 07:16:45;;;;;;;6.32;2.25;;;11.40;78.40;;;;;;5063564;28;20434;-86
2023/10/31 07:19:12;;;;;;;4.43;2.58;;;11.40;78.50;;;;;;5057258;28;20101;-90
2023/10/31 07:21:38;;;;;;;2.92;1.80;;;11.40;78.50;;;;;;5069301;28;20032;-88
2023/10/31 07:24:04;;;;;;;3.00;1.70;;;11.50;78.70;;;;;;5065387;28;20082;-89
2023/10/31 07:26:30;;;;;;;3.97;2.20;;;11.50;78.70;;;;;;5066294;28;20032;-90
2023/10/31 07:28:56;;;;;;;2.15;1.73;;;11.50;78.70;;;;;;5061336;28;20047;-89
2023/10/31 07:31:22;;;;;;;3.30;1.88;;;11.50;78.70;;;;;;5068659;28;20315;-88
2023/10/31 07:33:48;;;;;;;4.82;2.25;;;11.50;78.70;;;;;;5042433;28;20036;-88
2023/10/31 07:36:14;;;;;;;3.97;1.88;;;11.50;78.80;;;;;;5062534;28;20028;-88
2023/10/31 07:38:40;;;;;;;4.00;2.03;;;11.50;78.70;;;;;;5047324;28;20037;-87
2023/10/31 07:41:06;;;;;;;3.10;2.00;;;11.60;78.90;;;;;;5055492;28;20028;-84
2023/10/31 07:43:32;;;;;;;3.50;1.70;;;11.60;79.00;;;;;;5041719;28;20505;-85
2023/10/31 07:45:58;;;;;;;4.85;1.80;;;11.60;78.90;;;;;;5062632;28;20151;-87
2023/10/31 07:48:24;;;;;;;5.10;2.60;;;11.70;79.00;;;;;;5055176;28;20031;-86
2023/10/31 07:50:50;;;;;;;2.92;1.90;;;11.70;79.00;;;;;;5086048;28;20048;-86
2023/10/31 07:53:16;;;;;;;3.47;1.70;;;11.70;78.90;;;;;;5056467;28;20032;-88
2023/10/31 07:55:42;;;;;;;4.60;1.90;;;11.80;79.10;;;;;;5090114;27;20050;-86
2023/10/31 07:58:09;;;;;;;3.28;1.50;;;11.80;79.10;;;;;;5058444;28;20036;-86
2023/10/31 08:00:36;;;;;;;3.10;2.35;;;11.80;79.00;;;;;;5053521;28;20621;-87
2023/10/31 08:03:02;;;;;;;3.03;1.73;;;11.80;79.10;;;;;;5056814;28;20115;-86
2023/10/31 08:05:28;;;;;;;3.78;2.00;;;11.80;79.00;;;;;;5053297;28;20040;-86
2023/10/31 08:07:54;;;;;;;2.55;1.88;;;11.80;79.00;;;;;;5058209;28;20584;-85
2023/10/31 08:10:20;;;;;;;4.32;1.70;;;11.90;79.20;;;;;;5058328;28;20450;-87
2023/10/31 08:12:46;;;;;;;6.13;2.17;;;11.90;79.20;;;;;;5056604;28;20024;-86
2023/10/31 08:15:13;;;;;;;3.58;2.10;;;11.90;79.20;;;;;;5042441;28;20547;-86
2023/10/31 08:17:39;;;;;;;3.88;2.67;;;11.90;79.20;;;;;;5060783;28;20036;-87
2023/10/31 08:20:06;;;;;;;3.97;1.85;;;12.00;79.30;;;;;;5064818;28;20123;-87
2023/10/31 08:22:32;;;;;;;4.25;1.63;;;12.10;79.40;;;;;;5059637;28;20278;-87
2023/10/31 08:24:59;;;;;;;3.63;2.00;;;12.10;79.40;;;;;;5060603;28;20036;-87
2023/10/31 08:27:25;;;;;;;4.20;2.33;;;12.20;79.50;;;;;;5057006;28;20107;-88
2023/10/31 08:29:52;;;;;;;1.85;1.50;;;12.20;79.40;;;;;;5056519;28;20127;-87
2023/10/31 08:32:22;;;;;;;3.50;1.60;;;12.30;79.50;;;;;;5061576;28;20385;-87
2023/10/31 08:34:48;;;;;;;1.60;1.30;;;12.30;79.50;;;;;;5059447;28;20434;-87
2023/10/31 08:37:15;;;;;;;3.03;1.70;;;12.40;79.60;;;;;;5040765;28;20032;-87
2023/10/31 08:39:41;;;;;;;3.83;1.55;;;12.40;79.50;;;;;;5058583;28;20063;-87
2023/10/31 08:42:07;;;;;;;1.35;1.15;;;12.40;79.40;;;;;;5035196;28;20124;-88
2023/10/31 08:44:33;;;;;;;4.15;1.40;;;12.50;80.10;;;;;;5059394;28;20056;-87
2023/10/31 08:47:00;;;;;;;4.13;1.20;;;12.60;79.80;;;;;;5056771;28;20094;-87
2023/10/31 08:49:26;;;;;;;4.22;1.55;;;12.60;79.70;;;;;;5037483;28;20122;-87
2023/10/31 08:51:52;;;;;;;3.10;1.33;;;12.70;79.80;;;;;;5056339;28;20039;-87
2023/10/31 08:54:19;;;;;;;2.22;0.90;;;12.90;80.00;;;;;;5096036;27;20590;-89
2023/10/31 08:56:45;;;;;;;3.95;1.00;;;12.90;79.80;;;;;;5055699;28;20070;-89
2023/10/31 08:59:12;;;;;;;2.67;1.15;;;13.10;80.10;;;;;;5043170;28;20116;-90
2023/10/31 09:01:38;;;;;;;3.15;1.40;;;13.20;80.10;;;;;;5060091;28;20028;-89
2023/10/31 09:04:04;;;;;;;1.80;0.88;;;13.40;80.80;;;;;;5064115;28;20028;-89
2023/10/31 09:06:31;;;;;;;1.30;0.93;;;13.50;80.10;;;;;;5059160;28;20036;-88
2023/10/31 09:08:57;;;;;;;3.80;0.88;;;13.70;80.20;;;;;;5065626;28;20033;-94
2023/10/31 09:11:24;;;;;;;4.07;1.58;;;13.90;80.20;;;;;;5060303;28;20044;-84
2023/10/31 09:13:50;;;;;;;2.83;1.05;;;14.00;80.10;;;;;;5094654;27;20078;-85
2023/10/31 09:16:17;;;;;;;3.83;1.15;;;14.20;80.00;;;;;;5040859;28;20041;-85
2023/10/31 09:18:43;;;;;;;2.10;1.00;;;14.30;79.70;;;;;;5053326;28;20056;-83
2023/10/31 09:21:10;;;;;;;4.32;1.85;;;14.40;79.70;;;;;;5070419;28;20514;-85
2023/10/31 09:23:36;;;;;;;3.05;0.90;;;14.40;79.60;;;;;;5058849;28;20379;-82
2023/10/31 09:26:02;;;;;;;1.85;1.05;;;14.50;79.80;;;;;;5041238;28;20039;-81
2023/10/31 09:28:28;;;;;;;2.88;0.85;;;14.50;79.80;;;;;;5053111;28;20112;-81
2023/10/31 09:30:55;;;;;;;2.60;1.08;;;14.50;79.90;;;;;;5052679;28;20632;-80
2023/10/31 09:33:22;;;;;;;1.45;0.77;;;14.50;80.00;;;;;;5056245;28;20131;-80
2023/10/31 09:35:48;;;;;;;4.53;1.23;;;14.50;80.00;;;;;;5052051;28;20496;-81
2023/10/31 09:38:14;;;;;;;1.85;0.90;;;14.60;80.20;;;;;;5052274;28;21490;-80
2023/10/31 09:40:40;;;;;;;3.05;0.70;;;14.70;80.40;;;;;;5046814;28;20258;-82
2023/10/31 09:43:06;;;;;;;2.78;1.00;;;14.80;80.40;;;;;;5053668;28;20036;-82
2023/10/31 09:45:33;;;;;;;2.45;1.30;;;15.00;80.50;;;;;;5062932;28;20059;-82
2023/10/31 09:48:03;;;;;;;1.80;0.82;;;15.20;80.50;;;;;;5064398;28;21046;-83
2023/10/31 09:50:33;;;;;;;2.90;0.98;;;15.40;80.40;;;;;;5058497;28;20052;-81
2023/10/31 09:53:01;;;;;;;2.58;0.90;;;15.60;80.30;;;;;;5058886;28;20024;-80
2023/10/31 09:55:28;;;;;;;3.33;0.82;;;15.80;80.30;;;;;;5050865;28;20048;-80
2023/10/31 09:57:55;;;;;;;2.85;0.70;;;15.90;80.10;;;;;;5062824;28;20036;-81
2023/10/31 10:00:24;;;;;;;1.85;0.63;;;16.10;80.10;;;;;;5056508;28;20040;-81
2023/10/31 10:02:51;;;;;;;3.08;1.30;;;16.20;79.90;;;;;;5057319;28;20039;-81
2023/10/31 10:05:18;;;;;;;1.70;0.60;;;16.30;79.70;;;;;;5042669;28;20051;-81
2023/10/31 10:07:50;;;;;;;1.52;0.70;;;16.40;79.60;;;;;;5056897;28;20032;-81
2023/10/31 10:10:19;;;;;;;1.08;0.45;;;16.50;79.60;;;;;;5055451;28;20550;-82
2023/10/31 10:12:46;;;;;;;1.55;0.60;;;16.50;79.50;;;;;;5057454;28;20082;-81
2023/10/31 10:15:12;;;;;;;1.65;0.50;;;16.60;79.40;;;;;;5058837;28;20480;-81
2023/10/31 10:17:39;;;;;;;2.20;0.70;;;16.70;79.40;;;;;;5067245;28;20024;-82
2023/10/31 10:20:05;;;;;;;1.00;0.45;;;16.80;79.40;;;;;;5061942;28;20499;-82
2023/10/31 10:22:31;;;;;;;2.10;0.65;;;16.90;79.30;;;;;;5060843;28;20112;-82
2023/10/31 10:24:58;;;;;;;1.10;0.50;;;16.90;79.10;;;;;;5067500;28;20127;-82
2023/10/31 10:27:23;;;;;;;2.83;0.80;;;17.00;79.10;;;;;;5060032;28;20039;-81
2023/10/31 10:29:53;;;;;;;2.65;0.75;;;17.00;78.90;;;;;;5062031;28;20186;-81
2023/10/31 10:32:19;;;;;;;2.50;0.63;;;17.00;78.70;;;;;;5043614;28;21652;-82
2023/10/31 10:34:45;;;;;;;3.40;1.30;;;17.00;78.60;;;;;;5062078;28;20024;-84
2023/10/31 10:37:13;;;;;;;1.45;0.43;;;17.00;78.40;;;;;;5059160;28;20047;-83
2023/10/31 10:39:40;;;;;;;2.97;1.02;;;17.00;78.30;;;;;;5066100;28;20450;-87
2023/10/31 10:42:11;;;;;;;3.78;0.70;;;17.00;78.80;;;;;;5035823;28;20041;-82
2023/10/31 10:44:43;;;;;;;1.90;0.93;;;16.90;78.10;;;;;;5065958;28;20499;-81
2023/10/31 10:47:11;;;;;;;3.50;0.90;;;16.90;78.10;;;;;;5046739;28;20555;-81
2023/10/31 10:49:42;;;;;;;2.55;0.70;;;16.90;78.10;;;;;;5057709;28;20135;-81
2023/10/31 10:52:27;;;;;;;2.90;0.70;;;16.90;78.00;;;;;;5059486;28;20028;-81
2023/10/31 10:55:10;;;;;;;1.35;0.50;;;16.90;78.00;;;;;;5062598;28;20289;-84
2023/10/31 10:58:00;;;;;;;2.60;0.77;;;16.80;77.70;;;;;;5058771;28;20359;-82
2023/10/31 11:00:26;;;;;;;3.55;0.90;;;16.80;77.70;;;;;;5057280;28;20043;-81
2023/10/31 11:02:57;;;;;;;2.67;1.05;;;16.80;77.70;;;;;;5088973;27;20041;-81
2023/10/31 11:05:24;;;;;;;4.88;0.80;;;16.90;77.90;;;;;;5061903;28;20135;-80
2023/10/31 11:07:52;;;;;;;1.00;0.70;;;16.90;77.80;;;;;;5060423;28;20127;-81
2023/10/31 11:10:18;;;;;;;2.75;0.85;;;16.90;77.50;;;;;;5056145;28;20045;-80
2023/10/31 11:12:44;;;;;;;1.17;0.45;;;17.00;77.60;;;;;;5056459;28;20120;-81
2023/10/31 11:15:15;;;;;;;2.13;0.70;;;17.00;77.50;;;;;;5056214;28;20117;-81
2023/10/31 11:17:46;;;;;;;1.33;0.57;;;17.10;77.40;;;;;;5062742;28;20326;-81
2023/10/31 11:20:15;;;;;;;2.03;0.68;;;17.20;77.30;;;;;;5057497;28;20425;-80
2023/10/31 11:22:44;;;;;;;2.92;0.65;;;17.30;77.20;;;;;;5057543;28;20040;-81
2023/10/31 11:25:14;;;;;;;3.28;0.93;;;17.30;76.90;;;;;;5057212;28;20251;-81
2023/10/31 11:27:41;;;;;;;3.75;1.38;;;17.40;76.80;;;;;;5060521;28;20123;-81
2023/10/31 11:30:30;;;;;;;4.95;1.65;;;17.40;76.70;;;;;;5056965;28;20424;-81
2023/10/31 11:33:01;;;;;;;1.80;0.73;;;17.40;76.50;;;;;;5047012;28;20028;-81
2023/10/31 11:35:33;;;;;;;3.85;0.80;;;17.50;76.70;;;;;;5053790;28;20064;-80
2023/10/31 11:38:09;;;;;;;4.27;1.30;;;17.60;76.60;;;;;;5060639;28;20099;-80
2023/10/31 11:41:03;;;;;;;3.63;1.33;;;17.60;76.40;;;;;;5042398;28;20301;-80
2023/10/31 11:43:56;;;;;;;3.85;0.88;;;17.60;76.10;;;;;;5053113;28;20052;-80
2023/10/31 11:46:26;;;;;;;2.58;0.70;;;17.60;76.00;;;;;;5059044;28;20531;-80
2023/10/31 11:48:55;;;;;;;3.22;0.85;;;17.50;76.00;;;;;;5055570;28;20041;-80
2023/10/31 11:51:22;;;;;;;2.53;0.73;;;17.50;76.00;;;;;;5054165;28;20055;-80
2023/10/31 11:53:52;;;;;;;3.78;1.23;;;17.40;75.80;;;;;;5061026;28;20042;-79
2023/10/31 11:56:20;;;;;;;2.25;0.80;;;17.40;75.80;;;;;;5057386;28;20032;-78
2023/10/31 11:59:02;;;;;;;4.10;1.00;;;17.30;75.60;;;;;;5062093;28;20028;-79
2023/10/31 12:01:28;;;;;;;6.07;1.58;;;17.30;75.50;;;;;;5053737;28;20047;-79
2023/10/31 12:03:54;;;;;;;4.38;1.23;;;17.20;75.40;;;;;;5058316;28;20047;-80
2023/10/31 12:06:21;;;;;;;2.85;1.20;;;17.10;75.20;;;;;;5055235;28;20042;-79
2023/10/31 12:08:48;;;;;;;3.10;0.80;;;17.10;75.20;;;;;;5066318;28;20036;-81
2023/10/31 12:11:21;;;;;;;5.35;1.35;;;17.00;75.10;;;;;;5054004;28;20040;-82
2023/10/31 12:14:00;;;;;;;2.67;0.95;;;17.00;75.20;;;;;;5058743;28;20028;-80
2023/10/31 12:16:28;;;;;;;2.15;0.95;;;17.00;75.10;;;;;;5055756;28;20127;-82
2023/10/31 12:18:59;;;;;;;2.83;0.93;;;17.00;75.20;;;;;;5054840;28;20036;-82
2023/10/31 12:21:36;;;;;;;3.53;1.13;;;16.90;75.00;;;;;;5059813;28;20297;-81
2023/10/31 12:24:07;;;;;;;3.20;0.98;;;16.80;74.80;;;;;;5040338;28;20036;-81
2023/10/31 12:26:34;;;;;;;4.80;1.23;;;16.90;75.10;;;;;;5056291;28;20441;-81
2023/10/31 12:29:14;;;;;;;3.53;1.17;;;16.90;75.10;;;;;;5056256;28;20032;-81
2023/10/31 12:31:45;;;;;;;3.22;1.38;;;16.90;75.00;;;;;;5054051;28;20044;-81
2023/10/31 12:34:12;;;;;;;4.38;1.25;;;17.00;75.10;;;;;;5040596;28;20469;-80
2023/10/31 12:36:39;;;;;;;4.15;1.00;;;17.00;74.90;;;;;;5054671;28;20102;-80
2023/10/31 12:39:08;;;;;;;3.60;1.02;;;17.00;74.70;;;;;;5055875;28;20084;-81
2023/10/31 12:41:35;;;;;;;1.40;0.80;;;17.00;75.10;;;;;;5047974;28;20517;-80
2023/10/31 12:44:04;;;;;;;6.20;1.60;;;17.00;74.60;;;;;;5056728;28;20028;-79
2023/10/31 12:46:32;;;;;;;4.22;1.45;;;17.00;74.50;;;;;;5040377;28;20048;-80
2023/10/31 12:48:58;;;;;;;2.08;0.80;;;17.00;74.40;;;;;;5060107;28;20081;-80